createdAt,value
2018-03-28T00:00:31.878Z,28.98
2018-03-28T00:01:05.310Z,32.45
2018-03-28T00:01:39.044Z,33.20
2018-03-28T00:02:12.756Z,30.15
2018-03-28T00:02:46.488Z,31.05
2018-03-28T00:03:20.265Z,32.35
2018-03-28T00:03:54.765Z,33.42
2018-03-28T00:04:28.505Z,36.50
2018-03-28T00:05:02.252Z,34.55
2018-03-28T00:05:36.198Z,37.00
2018-03-28T00:06:10.467Z,28.90
2018-03-28T00:06:44.183Z,31.37
2018-03-28T00:07:18.668Z,34.28
2018-03-28T00:07:52.408Z,30.50
2018-03-28T00:08:26.171Z,29.17
2018-03-28T00:09:00.665Z,34.50
2018-03-28T00:09:34.467Z,31.50
2018-03-28T00:10:08.183Z,30.62
2018-03-28T00:10:41.917Z,27.50
2018-03-28T00:11:15.665Z,31.08
2018-03-28T00:11:49.403Z,30.05
2018-03-28T00:12:23.197Z,34.65
2018-03-28T00:12:56.933Z,29.40
2018-03-28T00:13:30.655Z,33.03
2018-03-28T00:14:04.396Z,26.08
2018-03-28T00:14:38.934Z,27.37
2018-03-28T00:15:12.337Z,30.23
2018-03-28T00:15:46.073Z,29.17
2018-03-28T00:16:19.835Z,28.62
2018-03-28T00:16:53.338Z,32.00
2018-03-28T00:17:27.058Z,29.48
2018-03-28T00:18:01.545Z,27.83
2018-03-28T00:18:35.283Z,28.48
2018-03-28T00:19:09.143Z,24.63
2018-03-28T00:19:43.870Z,29.37
2018-03-28T00:20:17.601Z,28.85
2018-03-28T00:20:51.323Z,32.55
2018-03-28T00:21:25.179Z,27.00
2018-03-28T00:21:58.916Z,29.40
2018-03-28T00:22:33.415Z,30.88
2018-03-28T00:23:07.151Z,27.95
2018-03-28T00:23:40.876Z,31.70
2018-03-28T00:24:14.611Z,24.42
2018-03-28T00:24:49.094Z,26.08
2018-03-28T00:25:22.819Z,27.50
2018-03-28T00:25:56.560Z,29.20
2018-03-28T00:26:31.204Z,29.48
2018-03-28T00:27:05.025Z,29.23
2018-03-28T00:27:38.803Z,26.33
2018-03-28T00:28:13.284Z,27.00
2018-03-28T00:28:47.108Z,27.92
2018-03-28T00:29:20.829Z,26.33
2018-03-28T00:29:54.637Z,29.23
2018-03-28T00:30:28.571Z,26.23
2018-03-28T00:31:03.069Z,31.35
2018-03-28T00:32:14.803Z,25.27
2018-03-28T00:32:48.893Z,24.83
2018-03-28T00:33:22.733Z,28.87
2018-03-28T00:33:56.454Z,29.12
2018-03-28T00:34:30.959Z,28.85
2018-03-28T00:35:05.454Z,26.92
2018-03-28T00:35:39.176Z,29.25
2018-03-28T00:36:12.907Z,31.37
2018-03-28T00:36:46.779Z,24.42
2018-03-28T00:37:20.491Z,26.23
2018-03-28T00:37:54.255Z,29.52
2018-03-28T00:38:27.981Z,28.70
2018-03-28T00:39:01.711Z,28.30
2018-03-28T00:39:36.219Z,27.08
2018-03-28T00:40:10.113Z,28.30
2018-03-28T00:40:44.597Z,28.65
2018-03-28T00:41:18.527Z,27.20
2018-03-28T00:41:52.582Z,27.42
2018-03-28T00:42:26.438Z,27.92
2018-03-28T00:43:01.717Z,30.02
2018-03-28T00:43:35.445Z,25.15
2018-03-28T00:44:09.227Z,29.50
2018-03-28T00:44:43.711Z,27.20
2018-03-28T00:45:17.449Z,28.95
2018-03-28T00:45:51.156Z,26.80
2018-03-28T00:46:24.875Z,26.60
2018-03-28T00:46:59.021Z,26.15
2018-03-28T00:47:32.742Z,26.33
2018-03-28T00:48:06.461Z,31.20
2018-03-28T00:48:40.192Z,32.22
2018-03-28T00:49:13.903Z,28.83
2018-03-28T00:49:47.615Z,27.25
2018-03-28T00:50:21.350Z,28.30
2018-03-28T00:50:55.516Z,26.08
2018-03-28T00:51:37.543Z,33.53
2018-03-28T00:52:11.305Z,32.53
2018-03-28T00:52:45.798Z,31.10
2018-03-28T00:53:19.519Z,33.05
2018-03-28T00:53:54.238Z,24.67
2018-03-28T00:54:28.718Z,27.25
2018-03-28T00:55:02.433Z,31.02
2018-03-28T00:55:36.915Z,27.98
2018-03-28T00:56:10.628Z,23.75
2018-03-28T00:56:45.115Z,26.42
2018-03-28T00:57:18.897Z,27.15
2018-03-28T00:57:52.614Z,25.08
2018-03-28T00:58:27.107Z,28.48
2018-03-28T00:59:00.822Z,29.98
2018-03-28T00:59:35.311Z,24.40
2018-03-28T01:00:09.033Z,30.73
2018-03-28T01:00:42.764Z,28.05
2018-03-28T01:01:16.472Z,27.35
2018-03-28T01:01:50.241Z,31.10
2018-03-28T01:02:23.999Z,28.35
2018-03-28T01:02:57.732Z,29.27
2018-03-28T01:03:31.448Z,33.33
2018-03-28T01:04:04.837Z,34.38
2018-03-28T01:04:38.569Z,26.20
2018-03-28T01:05:12.289Z,32.13
2018-03-28T01:05:46.019Z,28.52
2018-03-28T01:06:20.638Z,32.03
2018-03-28T01:06:55.123Z,27.05
2018-03-28T01:07:28.886Z,32.00
2018-03-28T01:08:02.619Z,31.83
2018-03-28T01:08:37.127Z,28.33
2018-03-28T01:09:11.609Z,34.08
2018-03-28T01:09:45.319Z,30.10
2018-03-28T01:10:19.836Z,30.92
2018-03-28T01:10:54.487Z,27.65
2018-03-28T01:11:28.229Z,31.60
2018-03-28T01:12:02.726Z,30.62
2018-03-28T01:12:36.768Z,30.02
2018-03-28T01:13:10.523Z,26.25
2018-03-28T01:13:44.239Z,32.17
2018-03-28T01:14:18.715Z,25.85
2018-03-28T01:14:52.503Z,29.77
2018-03-28T01:15:26.233Z,32.75
2018-03-28T01:16:00.712Z,28.92
2018-03-28T01:16:35.201Z,31.70
2018-03-28T01:17:08.939Z,30.10
2018-03-28T01:17:43.695Z,29.45
2018-03-28T01:18:17.435Z,31.37
2018-03-28T01:18:51.929Z,32.92
2018-03-28T01:19:26.403Z,26.02
2018-03-28T01:20:00.140Z,30.10
2018-03-28T01:20:34.317Z,27.75
2018-03-28T01:21:08.065Z,36.35
2018-03-28T01:21:41.787Z,30.55
2018-03-28T01:22:15.189Z,29.85
2018-03-28T01:22:48.949Z,33.50
2018-03-28T01:23:22.675Z,33.20
2018-03-28T01:23:56.399Z,27.83
2018-03-28T01:24:30.119Z,29.00
2018-03-28T01:25:03.847Z,29.73
2018-03-28T01:25:37.572Z,29.40
2018-03-28T01:26:11.283Z,31.92
2018-03-28T01:26:45.005Z,30.90
2018-03-28T01:27:18.734Z,28.17
2018-03-28T01:27:53.235Z,25.77
2018-03-28T01:28:27.729Z,30.73
2018-03-28T01:29:01.463Z,27.92
2018-03-28T01:29:35.213Z,34.00
2018-03-28T01:30:08.938Z,28.20
2018-03-28T01:30:42.687Z,33.13
2018-03-28T01:31:16.411Z,31.40
2018-03-28T01:31:50.972Z,28.33
2018-03-28T01:32:24.717Z,34.38
2018-03-28T01:32:58.473Z,30.30
2018-03-28T01:33:32.208Z,30.92
2018-03-28T01:34:05.925Z,31.35
2018-03-28T01:34:39.657Z,32.80
2018-03-28T01:35:14.147Z,32.13
2018-03-28T01:35:47.867Z,28.33
2018-03-28T01:36:22.515Z,29.73
2018-03-28T01:36:56.239Z,32.78
2018-03-28T01:37:30.802Z,25.75
2018-03-28T01:38:04.892Z,32.28
2018-03-28T01:38:38.613Z,33.70
2018-03-28T01:39:12.331Z,30.05
2018-03-28T01:39:46.061Z,27.52
2018-03-28T01:40:19.783Z,32.55
2018-03-28T01:40:53.500Z,25.80
2018-03-28T01:41:27.227Z,27.33
2018-03-28T01:42:00.959Z,30.83
2018-03-28T01:42:34.688Z,27.27
2018-03-28T01:43:09.219Z,30.48
2018-03-28T01:43:43.720Z,28.77
2018-03-28T01:44:17.457Z,30.88
2018-03-28T01:44:51.191Z,32.60
2018-03-28T01:45:25.680Z,29.00
2018-03-28T01:45:59.435Z,29.60
2018-03-28T01:46:33.165Z,27.85
2018-03-28T01:47:06.883Z,27.00
2018-03-28T01:47:41.431Z,26.67
2018-03-28T01:48:15.188Z,30.25
2018-03-28T01:48:49.687Z,26.70
2018-03-28T01:49:24.180Z,27.20
2018-03-28T01:49:57.891Z,30.10
2018-03-28T01:50:32.392Z,29.75
2018-03-28T01:51:07.007Z,30.33
2018-03-28T01:51:41.497Z,27.52
2018-03-28T01:52:14.989Z,29.87
2018-03-28T01:52:48.726Z,24.30
2018-03-28T01:53:22.830Z,27.67
2018-03-28T01:53:56.555Z,34.78
2018-03-28T01:54:30.076Z,29.52
2018-03-28T01:55:03.490Z,30.55
2018-03-28T01:55:37.222Z,29.17
2018-03-28T01:56:10.991Z,31.23
2018-03-28T01:56:44.725Z,28.58
2018-03-28T01:57:19.218Z,32.90
2018-03-28T01:57:52.940Z,29.90
2018-03-28T01:58:26.809Z,28.70
2018-03-28T01:59:01.304Z,30.25
2018-03-28T01:59:35.041Z,38.35
2018-03-28T02:00:08.756Z,25.25
2018-03-28T02:00:42.467Z,25.05
2018-03-28T02:01:16.192Z,28.62
2018-03-28T02:01:50.716Z,27.95
2018-03-28T02:02:24.439Z,24.67
2018-03-28T02:02:58.155Z,27.75
2018-03-28T02:03:32.170Z,28.40
2018-03-28T02:04:05.893Z,29.25
2018-03-28T02:04:39.619Z,28.25
2018-03-28T02:05:13.333Z,29.63
2018-03-28T02:05:47.062Z,30.52
2018-03-28T02:06:20.785Z,30.58
2018-03-28T02:06:54.500Z,28.95
2018-03-28T02:07:27.889Z,28.27
2018-03-28T02:08:01.597Z,34.13
2018-03-28T02:08:36.395Z,31.55
2018-03-28T02:09:10.162Z,25.48
2018-03-28T02:09:44.698Z,30.83
2018-03-28T02:10:18.429Z,25.80
2018-03-28T02:10:52.219Z,27.00
2018-03-28T02:11:25.934Z,29.40
2018-03-28T02:11:59.350Z,36.60
2018-03-28T02:12:32.737Z,29.60
2018-03-28T02:13:06.487Z,25.30
2018-03-28T02:13:40.438Z,26.87
2018-03-28T02:14:15.091Z,32.10
2018-03-28T02:14:48.924Z,26.62
2018-03-28T02:15:22.667Z,25.65
2018-03-28T02:15:56.392Z,26.67
2018-03-28T02:16:30.096Z,28.77
2018-03-28T02:17:04.131Z,27.17
2018-03-28T02:17:37.854Z,26.20
2018-03-28T02:18:11.571Z,27.75
2018-03-28T02:18:45.423Z,31.65
2018-03-28T02:19:19.147Z,24.55
2018-03-28T02:19:52.852Z,27.20
2018-03-28T02:20:26.353Z,22.87
2018-03-28T02:21:00.841Z,28.05
2018-03-28T02:21:34.561Z,26.67
2018-03-28T02:22:08.714Z,24.90
2018-03-28T02:22:42.443Z,27.48
2018-03-28T02:23:16.927Z,25.02
2018-03-28T02:23:50.696Z,26.23
2018-03-28T02:24:24.419Z,28.42
2018-03-28T02:24:58.157Z,27.40
2018-03-28T02:25:31.890Z,29.15
2018-03-28T02:26:05.612Z,27.98
2018-03-28T02:26:40.108Z,31.10
2018-03-28T02:27:13.838Z,25.27
2018-03-28T02:27:47.556Z,27.80
2018-03-28T02:28:21.292Z,25.08
2018-03-28T02:28:55.833Z,28.52
2018-03-28T02:29:29.568Z,22.75
2018-03-28T02:30:03.287Z,27.62
2018-03-28T02:30:37.771Z,25.12
2018-03-28T02:31:11.502Z,26.42
2018-03-28T02:31:45.226Z,27.87
2018-03-28T02:32:18.944Z,27.33
2018-03-28T02:32:52.687Z,23.58
2018-03-28T02:33:26.422Z,28.62
2018-03-28T02:34:00.452Z,25.70
2018-03-28T02:34:34.949Z,27.25
2018-03-28T02:35:09.448Z,32.40
2018-03-28T02:35:43.175Z,22.70
2018-03-28T02:36:16.907Z,30.37
2018-03-28T02:36:50.631Z,27.90
2018-03-28T02:37:25.144Z,22.65
2018-03-28T02:37:59.625Z,26.65
2018-03-28T02:38:33.348Z,26.05
2018-03-28T02:39:08.163Z,26.25
2018-03-28T02:39:42.432Z,28.73
2018-03-28T02:40:16.293Z,27.67
2018-03-28T02:40:50.074Z,25.95
2018-03-28T02:41:23.792Z,26.33
2018-03-28T02:41:57.526Z,24.95
2018-03-28T02:42:31.015Z,22.98
2018-03-28T02:43:05.197Z,25.33
2018-03-28T02:43:39.170Z,24.95
2018-03-28T02:44:12.908Z,29.15
2018-03-28T02:44:47.394Z,22.20
2018-03-28T02:45:20.880Z,26.48
2018-03-28T02:45:54.596Z,26.33
2018-03-28T02:46:29.277Z,25.55
2018-03-28T02:47:02.992Z,25.55
2018-03-28T02:47:37.475Z,24.37
2018-03-28T02:48:11.264Z,21.25
2018-03-28T02:48:44.988Z,21.87
2018-03-28T02:49:19.822Z,27.42
2018-03-28T02:49:53.540Z,25.58
2018-03-28T02:50:27.262Z,26.00
2018-03-28T02:51:00.991Z,28.58
2018-03-28T02:51:34.716Z,26.20
2018-03-28T02:52:08.438Z,21.87
2018-03-28T02:52:42.160Z,22.83
2018-03-28T02:53:15.882Z,23.15
2018-03-28T02:53:49.596Z,25.12
2018-03-28T02:54:23.343Z,25.70
2018-03-28T02:54:57.073Z,20.17
2018-03-28T02:55:30.778Z,24.15
2018-03-28T02:56:04.490Z,23.70
2018-03-28T02:56:38.978Z,25.73
2018-03-28T02:57:12.686Z,21.42
2018-03-28T02:57:47.157Z,22.85
2018-03-28T02:58:20.884Z,19.80
2018-03-28T02:58:55.378Z,23.75
2018-03-28T02:59:29.130Z,24.60
2018-03-28T03:00:02.842Z,23.67
2018-03-28T03:00:36.566Z,24.63
2018-03-28T03:01:11.094Z,24.95
2018-03-28T03:01:44.814Z,26.35
2018-03-28T03:02:18.542Z,26.02
2018-03-28T03:02:52.270Z,21.70
2018-03-28T03:03:26.002Z,25.95
2018-03-28T03:03:59.724Z,23.38
2018-03-28T03:04:34.230Z,26.30
2018-03-28T03:05:08.731Z,20.23
2018-03-28T03:05:42.455Z,22.85
2018-03-28T03:06:16.180Z,21.58
2018-03-28T03:06:49.898Z,26.92
2018-03-28T03:07:23.626Z,22.98
2018-03-28T03:07:57.359Z,24.98
2018-03-28T03:08:31.388Z,22.00
2018-03-28T03:09:04.214Z,25.30
2018-03-28T03:09:37.952Z,29.70
2018-03-28T03:10:12.440Z,22.33
2018-03-28T03:10:46.178Z,23.83
2018-03-28T03:11:19.928Z,21.33
2018-03-28T03:11:53.660Z,27.58
2018-03-28T03:12:27.062Z,22.90
2018-03-28T03:13:00.793Z,21.77
2018-03-28T03:13:34.523Z,20.58
2018-03-28T03:14:08.226Z,27.37
2018-03-28T03:14:42.311Z,22.30
2018-03-28T03:15:16.026Z,21.15
2018-03-28T03:15:49.760Z,21.92
2018-03-28T03:16:23.484Z,28.80
2018-03-28T03:16:57.199Z,25.33
2018-03-28T03:17:30.935Z,22.02
2018-03-28T03:18:04.786Z,22.60
2018-03-28T03:18:38.514Z,24.92
2018-03-28T03:19:12.238Z,24.37
2018-03-28T03:19:45.996Z,21.42
2018-03-28T03:20:19.704Z,27.62
2018-03-28T03:20:54.187Z,24.10
2018-03-28T03:21:27.905Z,22.67
2018-03-28T03:22:02.408Z,23.55
2018-03-28T03:22:36.916Z,22.30
2018-03-28T03:23:11.435Z,22.90
2018-03-28T03:23:45.930Z,23.95
2018-03-28T03:24:19.643Z,28.02
2018-03-28T03:24:53.392Z,22.13
2018-03-28T03:25:27.110Z,24.40
2018-03-28T03:26:01.253Z,25.12
2018-03-28T03:26:34.958Z,22.35
2018-03-28T03:27:08.693Z,29.35
2018-03-28T03:27:43.180Z,24.52
2018-03-28T03:28:16.892Z,29.08
2018-03-28T03:28:51.393Z,24.35
2018-03-28T03:29:25.104Z,27.50
2018-03-28T03:29:58.854Z,27.00
2018-03-28T03:30:32.585Z,21.73
2018-03-28T03:31:06.310Z,28.02
2018-03-28T03:31:40.033Z,21.95
2018-03-28T03:32:13.768Z,24.08
2018-03-28T03:32:47.502Z,21.27
2018-03-28T03:33:21.226Z,19.67
2018-03-28T03:33:55.714Z,29.77
2018-03-28T03:34:29.436Z,21.60
2018-03-28T03:35:03.537Z,23.17
2018-03-28T03:35:38.018Z,24.23
2018-03-28T03:36:11.784Z,28.17
2018-03-28T03:36:45.267Z,24.23
2018-03-28T03:37:18.993Z,22.05
2018-03-28T03:37:52.704Z,26.25
2018-03-28T03:38:26.444Z,24.92
2018-03-28T03:39:00.159Z,26.30
2018-03-28T03:39:33.878Z,22.50
2018-03-28T03:40:07.634Z,23.10
2018-03-28T03:40:41.358Z,28.17
2018-03-28T03:41:15.871Z,29.95
2018-03-28T03:41:49.602Z,25.58
2018-03-28T03:42:23.333Z,26.58
2018-03-28T03:42:57.041Z,26.75
2018-03-28T03:43:31.536Z,23.58
2018-03-28T03:44:06.001Z,25.25
2018-03-28T03:44:39.708Z,23.02
2018-03-28T03:45:13.456Z,21.65
2018-03-28T03:45:47.182Z,24.73
2018-03-28T03:46:20.900Z,26.02
2018-03-28T03:46:54.620Z,25.65
2018-03-28T03:47:28.338Z,25.02
2018-03-28T03:48:02.057Z,24.80
2018-03-28T03:48:35.793Z,22.25
2018-03-28T03:49:09.520Z,25.65
2018-03-28T03:49:43.232Z,25.58
2018-03-28T03:50:17.362Z,23.38
2018-03-28T03:50:51.102Z,24.00
2018-03-28T03:51:24.827Z,25.37
2018-03-28T03:51:59.328Z,21.75
2018-03-28T03:52:33.082Z,25.35
2018-03-28T03:53:06.793Z,22.83
2018-03-28T03:53:40.525Z,25.80
2018-03-28T03:54:14.248Z,25.52
2018-03-28T03:54:47.955Z,23.50
2018-03-28T03:55:21.980Z,25.33
2018-03-28T03:55:55.706Z,25.92
2018-03-28T03:56:29.426Z,25.55
2018-03-28T03:57:03.141Z,25.17
2018-03-28T03:57:36.864Z,21.05
2018-03-28T03:58:11.522Z,24.63
2018-03-28T03:58:45.299Z,21.67
2018-03-28T03:59:19.188Z,21.62
2018-03-28T03:59:52.564Z,24.83
2018-03-28T04:00:26.645Z,24.15
2018-03-28T04:01:00.360Z,22.92
2018-03-28T04:01:34.088Z,25.10
2018-03-28T04:02:07.968Z,22.52
2018-03-28T04:02:41.698Z,22.45
2018-03-28T04:03:15.418Z,26.17
2018-03-28T04:03:49.154Z,23.42
2018-03-28T04:04:22.880Z,24.42
2018-03-28T04:04:57.366Z,25.70
2018-03-28T04:05:31.530Z,27.60
2018-03-28T04:06:04.908Z,26.48
2018-03-28T04:06:38.615Z,26.92
2018-03-28T04:07:13.086Z,23.95
2018-03-28T04:07:46.910Z,25.25
2018-03-28T04:08:20.621Z,24.98
2018-03-28T04:08:54.337Z,25.85
2018-03-28T04:09:28.814Z,20.48
2018-03-28T04:10:03.290Z,27.48
2018-03-28T04:10:37.022Z,24.67
2018-03-28T04:11:10.744Z,23.15
2018-03-28T04:11:45.222Z,26.40
2018-03-28T04:12:18.954Z,23.52
2018-03-28T04:12:53.630Z,26.17
2018-03-28T04:13:27.352Z,24.85
2018-03-28T04:14:01.082Z,27.25
2018-03-28T04:14:34.826Z,26.75
2018-03-28T04:15:08.558Z,22.00
2018-03-28T04:15:42.311Z,24.55
2018-03-28T04:16:16.048Z,22.52
2018-03-28T04:16:49.765Z,24.80
2018-03-28T04:17:23.492Z,22.25
2018-03-28T04:17:57.970Z,23.48
2018-03-28T04:18:31.724Z,23.50
2018-03-28T04:19:05.449Z,22.67
2018-03-28T04:19:39.172Z,21.90
2018-03-28T04:20:13.648Z,23.80
2018-03-28T04:20:47.398Z,26.05
2018-03-28T04:21:21.144Z,23.42
2018-03-28T04:21:55.640Z,24.70
2018-03-28T04:22:29.360Z,25.27
2018-03-28T04:23:03.086Z,27.98
2018-03-28T04:23:36.802Z,26.45
2018-03-28T04:24:10.590Z,23.67
2018-03-28T04:24:44.292Z,27.23
2018-03-28T04:25:18.024Z,25.67
2018-03-28T04:25:52.134Z,21.08
2018-03-28T04:26:25.838Z,26.50
2018-03-28T04:26:59.552Z,24.33
2018-03-28T04:27:33.342Z,24.23
2018-03-28T04:28:07.064Z,22.45
2018-03-28T04:28:41.554Z,21.00
2018-03-28T04:29:15.280Z,20.85
2018-03-28T04:29:49.024Z,22.90
2018-03-28T04:30:22.756Z,20.27
2018-03-28T04:30:56.858Z,22.52
2018-03-28T04:31:31.342Z,23.50
2018-03-28T04:32:05.067Z,25.35
2018-03-28T04:32:38.788Z,23.73
2018-03-28T04:33:12.509Z,26.92
2018-03-28T04:33:46.232Z,23.15
2018-03-28T04:34:19.963Z,19.48
2018-03-28T04:34:53.685Z,21.73
2018-03-28T04:35:28.194Z,20.45
2018-03-28T04:36:01.968Z,28.08
2018-03-28T04:36:35.721Z,20.75
2018-03-28T04:37:10.402Z,20.60
2018-03-28T04:37:44.885Z,20.37
2018-03-28T04:38:18.604Z,19.95
2018-03-28T04:38:53.086Z,20.75
2018-03-28T04:39:26.811Z,21.23
2018-03-28T04:40:01.284Z,26.83
2018-03-28T04:40:35.000Z,23.70
2018-03-28T04:41:09.826Z,22.92
2018-03-28T04:41:43.552Z,22.27
2018-03-28T04:42:17.282Z,21.55
2018-03-28T04:42:51.004Z,24.67
2018-03-28T04:43:25.498Z,24.98
2018-03-28T04:43:59.992Z,20.73
2018-03-28T04:44:33.389Z,24.95
2018-03-28T04:45:07.890Z,20.23
2018-03-28T04:45:42.494Z,19.98
2018-03-28T04:46:16.262Z,23.65
2018-03-28T04:46:49.975Z,24.02
2018-03-28T04:47:23.699Z,23.20
2018-03-28T04:47:57.447Z,23.12
2018-03-28T04:48:31.168Z,22.60
2018-03-28T04:49:05.648Z,24.25
2018-03-28T04:49:39.386Z,21.62
2018-03-28T04:50:13.094Z,23.05
2018-03-28T04:50:46.807Z,22.17
2018-03-28T04:51:20.557Z,22.33
2018-03-28T04:51:54.286Z,23.30
2018-03-28T04:52:28.016Z,19.42
2018-03-28T04:53:02.504Z,19.42
2018-03-28T04:53:36.204Z,23.10
2018-03-28T04:54:09.925Z,24.42
2018-03-28T04:54:43.651Z,20.95
2018-03-28T04:55:17.388Z,22.48
2018-03-28T04:55:51.969Z,26.30
2018-03-28T04:56:25.915Z,23.77
2018-03-28T04:56:59.637Z,23.17
2018-03-28T04:57:33.360Z,25.20
2018-03-28T04:58:07.087Z,25.55
2018-03-28T04:58:40.804Z,22.67
2018-03-28T04:59:14.512Z,23.77
2018-03-28T04:59:48.238Z,21.20
2018-03-28T05:00:22.726Z,29.35
2018-03-28T05:00:56.456Z,23.95
2018-03-28T05:01:30.555Z,23.30
2018-03-28T05:02:03.959Z,21.30
2018-03-28T05:02:37.673Z,25.77
2018-03-28T05:03:11.410Z,22.23
2018-03-28T05:03:45.142Z,23.58
2018-03-28T05:04:18.880Z,20.75
2018-03-28T05:04:52.780Z,23.62
2018-03-28T05:05:27.262Z,31.75
2018-03-28T05:06:00.977Z,26.60
2018-03-28T05:06:35.798Z,25.00
2018-03-28T05:07:09.520Z,28.67
2018-03-28T05:07:43.234Z,21.83
2018-03-28T05:08:16.975Z,20.98
2018-03-28T05:08:50.712Z,24.12
2018-03-28T05:09:24.426Z,23.05
2018-03-28T05:09:58.142Z,23.62
2018-03-28T05:10:32.415Z,25.27
2018-03-28T05:11:05.799Z,26.17
2018-03-28T05:11:39.558Z,24.02
2018-03-28T05:12:13.296Z,24.60
2018-03-28T05:12:47.010Z,23.20
2018-03-28T05:13:20.730Z,27.60
2018-03-28T05:13:54.442Z,27.40
2018-03-28T05:14:28.172Z,22.33
2018-03-28T05:15:02.656Z,26.60
2018-03-28T05:15:36.437Z,27.60
2018-03-28T05:16:11.053Z,25.45
2018-03-28T05:16:44.874Z,22.65
2018-03-28T05:17:19.360Z,23.02
2018-03-28T05:17:53.084Z,22.75
2018-03-28T05:18:26.810Z,21.70
2018-03-28T05:19:00.531Z,26.10
2018-03-28T05:19:34.246Z,26.60
2018-03-28T05:20:08.729Z,25.42
2018-03-28T05:20:42.434Z,23.25
2018-03-28T05:21:16.141Z,24.98
2018-03-28T05:21:50.643Z,23.52
2018-03-28T05:22:25.135Z,27.08
2018-03-28T05:22:58.859Z,23.52
2018-03-28T05:23:32.588Z,27.65
2018-03-28T05:24:06.314Z,26.62
2018-03-28T05:24:40.019Z,29.10
2018-03-28T05:25:14.512Z,30.20
2018-03-28T05:25:48.225Z,28.17
2018-03-28T05:26:21.939Z,26.60
2018-03-28T05:26:55.693Z,25.98
2018-03-28T05:27:30.181Z,29.20
2018-03-28T05:28:03.902Z,26.87
2018-03-28T05:28:38.392Z,35.50
2018-03-28T05:29:12.171Z,23.52
2018-03-28T05:29:45.884Z,28.17
2018-03-28T05:30:20.370Z,27.42
2018-03-28T05:30:54.089Z,25.35
2018-03-28T05:31:28.572Z,27.37
2018-03-28T05:32:02.336Z,29.20
2018-03-28T05:32:36.051Z,32.33
2018-03-28T05:33:09.781Z,27.85
2018-03-28T05:33:43.255Z,27.65
2018-03-28T05:34:17.513Z,31.90
2018-03-28T05:34:51.218Z,26.55
2018-03-28T05:35:24.953Z,29.23
2018-03-28T05:35:58.692Z,34.90
2018-03-28T05:36:32.422Z,26.92
2018-03-28T05:37:06.187Z,36.08
2018-03-28T05:37:39.909Z,26.35
2018-03-28T05:38:13.644Z,31.80
2018-03-28T05:38:47.355Z,32.17
2018-03-28T05:39:21.080Z,30.67
2018-03-28T05:39:54.803Z,29.27
2018-03-28T05:40:28.530Z,34.08
2018-03-28T05:41:02.258Z,32.58
2018-03-28T05:41:35.992Z,30.73
2018-03-28T05:42:09.734Z,33.13
2018-03-28T05:42:43.464Z,29.58
2018-03-28T05:43:17.175Z,30.05
2018-03-28T05:43:50.898Z,33.20
2018-03-28T05:44:25.389Z,31.40
2018-03-28T05:44:59.104Z,31.70
2018-03-28T05:45:33.604Z,35.72
2018-03-28T05:46:08.093Z,33.85
2018-03-28T05:46:41.813Z,31.27
2018-03-28T05:47:15.567Z,34.80
2018-03-28T05:47:49.292Z,34.38
2018-03-28T05:48:23.025Z,36.50
2018-03-28T05:48:56.756Z,40.45
2018-03-28T05:49:31.239Z,30.60
2018-03-28T05:50:04.313Z,34.25
2018-03-28T05:50:38.034Z,39.15
2018-03-28T05:51:12.755Z,34.50
2018-03-28T05:51:47.242Z,33.63
2018-03-28T05:52:20.998Z,35.30
2018-03-28T05:52:54.742Z,33.20
2018-03-28T05:53:29.254Z,32.22
2018-03-28T05:54:03.603Z,34.75
2018-03-28T05:54:37.332Z,35.17
2018-03-28T05:55:11.051Z,34.08
2018-03-28T05:55:44.767Z,37.65
2018-03-28T05:56:18.485Z,34.90
2018-03-28T05:56:52.206Z,34.78
2018-03-28T05:57:26.728Z,32.17
2018-03-28T05:58:01.219Z,34.30
2018-03-28T05:58:35.721Z,33.67
2018-03-28T05:59:09.447Z,34.53
2018-03-28T05:59:43.176Z,41.67
2018-03-28T06:00:17.711Z,31.25
2018-03-28T06:00:51.433Z,31.83
2018-03-28T06:01:25.154Z,31.83
2018-03-28T06:01:58.895Z,37.72
2018-03-28T06:02:33.416Z,34.75
2018-03-28T06:03:07.902Z,31.23
2018-03-28T06:03:41.620Z,39.72
2018-03-28T06:04:15.336Z,41.95
2018-03-28T06:04:49.066Z,33.63
2018-03-28T06:05:22.795Z,35.10
2018-03-28T06:05:56.532Z,30.12
2018-03-28T06:06:30.247Z,35.47
2018-03-28T06:07:03.997Z,32.42
2018-03-28T06:07:37.796Z,31.27
2018-03-28T06:08:11.688Z,30.55
2018-03-28T06:08:45.434Z,35.25
2018-03-28T06:09:20.027Z,33.00
2018-03-28T06:09:53.743Z,40.78
2018-03-28T06:10:28.236Z,35.85
2018-03-28T06:11:02.396Z,32.90
2018-03-28T06:11:36.886Z,33.50
2018-03-28T06:12:10.612Z,34.30
2018-03-28T06:12:44.360Z,33.83
2018-03-28T06:13:18.092Z,31.95
2018-03-28T06:13:53.335Z,36.83
2018-03-28T06:14:27.050Z,33.65
2018-03-28T06:15:01.532Z,33.17
2018-03-28T06:15:35.251Z,34.15
2018-03-28T06:16:09.445Z,31.77
2018-03-28T06:16:43.229Z,38.90
2018-03-28T06:17:17.721Z,34.08
2018-03-28T06:17:51.505Z,35.50
2018-03-28T06:18:25.286Z,34.47
2018-03-28T06:18:59.207Z,32.95
2018-03-28T06:19:33.705Z,31.75
2018-03-28T06:20:07.432Z,34.30
2018-03-28T06:20:41.927Z,33.05
2018-03-28T06:21:16.420Z,33.65
2018-03-28T06:21:50.142Z,32.47
2018-03-28T06:22:24.632Z,31.83
2018-03-28T06:22:59.465Z,35.22
2018-03-28T06:23:33.942Z,29.52
2018-03-28T06:24:07.715Z,32.72
2018-03-28T06:24:42.347Z,32.75
2018-03-28T06:25:16.071Z,33.55
2018-03-28T06:25:49.806Z,28.75
2018-03-28T06:26:23.534Z,34.38
2018-03-28T06:26:58.029Z,31.15
2018-03-28T06:27:31.810Z,36.28
2018-03-28T06:28:05.637Z,34.50
2018-03-28T06:28:40.118Z,31.85
2018-03-28T06:29:13.841Z,31.67
2018-03-28T06:29:48.319Z,33.88
2018-03-28T06:30:22.043Z,30.60
2018-03-28T06:30:55.449Z,33.35
2018-03-28T06:31:29.175Z,38.28
2018-03-28T06:32:02.904Z,32.55
2018-03-28T06:32:37.385Z,30.90
2018-03-28T06:33:11.155Z,35.30
2018-03-28T06:33:45.668Z,35.08
2018-03-28T06:34:19.405Z,35.03
2018-03-28T06:34:53.898Z,33.15
2018-03-28T06:35:28.404Z,32.22
2018-03-28T06:36:02.125Z,28.50
2018-03-28T06:36:35.847Z,31.80
2018-03-28T06:37:09.574Z,32.47
2018-03-28T06:37:43.291Z,32.92
2018-03-28T06:38:17.419Z,35.67
2018-03-28T06:38:51.140Z,32.65
2018-03-28T06:39:24.530Z,31.17
2018-03-28T06:39:58.251Z,32.00
2018-03-28T06:40:32.439Z,36.30
2018-03-28T06:41:07.029Z,34.83
2018-03-28T06:41:40.773Z,35.58
2018-03-28T06:42:14.495Z,35.22
2018-03-28T06:42:48.219Z,35.63
2018-03-28T06:43:22.731Z,37.97
2018-03-28T06:43:57.221Z,29.75
2018-03-28T06:44:31.011Z,33.72
2018-03-28T06:45:04.079Z,57.92
2018-03-28T06:45:37.803Z,33.80
2018-03-28T06:46:12.319Z,34.67
2018-03-28T06:46:46.839Z,33.78
2018-03-28T06:47:20.620Z,38.03
2018-03-28T06:47:55.402Z,39.45
2018-03-28T06:48:29.179Z,35.90
2018-03-28T06:49:02.897Z,34.45
2018-03-28T06:49:36.621Z,31.05
2018-03-28T06:50:10.344Z,35.38
2018-03-28T06:50:44.083Z,34.72
2018-03-28T06:51:18.569Z,37.55
2018-03-28T06:51:52.383Z,35.10
2018-03-28T06:52:26.887Z,33.83
2018-03-28T06:53:00.813Z,40.47
2018-03-28T06:53:34.607Z,37.92
2018-03-28T06:54:08.145Z,36.95
2018-03-28T06:54:41.858Z,37.25
2018-03-28T06:55:15.599Z,34.95
2018-03-28T06:55:49.325Z,37.05
2018-03-28T06:56:23.041Z,33.20
2018-03-28T06:56:57.536Z,37.67
2018-03-28T06:57:32.023Z,33.40
2018-03-28T06:58:05.745Z,36.05
2018-03-28T06:58:39.549Z,35.55
2018-03-28T06:59:13.296Z,39.42
2018-03-28T06:59:47.215Z,37.95
2018-03-28T07:00:21.721Z,36.08
2018-03-28T07:00:56.219Z,35.60
2018-03-28T07:01:29.711Z,34.67
2018-03-28T07:02:03.439Z,34.78
2018-03-28T07:02:37.182Z,46.75
2018-03-28T07:03:10.925Z,44.10
2018-03-28T07:03:44.661Z,41.25
2018-03-28T07:04:18.380Z,37.70
2018-03-28T07:04:52.871Z,32.17
2018-03-28T07:05:26.639Z,37.03
2018-03-28T07:06:00.367Z,39.47
2018-03-28T07:06:34.862Z,35.88
2018-03-28T07:07:08.785Z,37.13
2018-03-28T07:07:42.525Z,36.10
2018-03-28T07:08:16.263Z,31.98
2018-03-28T07:08:50.027Z,36.20
2018-03-28T07:09:23.762Z,36.85
2018-03-28T07:09:57.486Z,40.55
2018-03-28T07:10:31.213Z,37.05
2018-03-28T07:11:05.707Z,39.88
2018-03-28T07:11:40.199Z,31.77
2018-03-28T07:12:13.937Z,37.63
2018-03-28T07:12:47.664Z,32.60
2018-03-28T07:13:21.393Z,39.30
2018-03-28T07:13:56.338Z,36.75
2018-03-28T07:14:30.065Z,36.30
2018-03-28T07:15:03.802Z,34.55
2018-03-28T07:15:38.299Z,33.15
2018-03-28T07:16:12.017Z,39.65
2018-03-28T07:16:45.769Z,36.58
2018-03-28T07:17:19.501Z,34.00
2018-03-28T07:17:54.115Z,36.33